Fort Richardson, AK (99505)

3:31 AM AKST on December 29, 2014 (GMT -0900)
AKDOT Glenn Highway @ S Curves MP 9.9 | Change Station
CLOSE
Current Station
Personal Weather Station
Location: Fort Richardson, AK
Elevation: 472 ft
Nearby Weather Stations
Active Advisory: High Wind Watch Active Notice: Record Report

Elev 472 ft 61.28 °N, 149.63 °W | Updated 41 minutes ago

Overcast
Overcast
24 °F
Feels Like 19 °F
N
4
Wind Variable Wind from NNE
Gusts 5.0 mph

Today
High -- | Low -- °F
--% Chance of Precip.
Yesterday
High -- | Low -- °F
Precip. -- in
10:14 AM 3:47 PM
First Quarter, 58% visible
Pressure 30.33 in
Visibility 10.0 miles
Clouds Overcast 12000 ft
Windchill 19 °F
Dew Point 21 °F
Humidity 87%
Rainfall -999.00 in
Snow Depth Not available.
UV 0 out of 12
Pollen Not available.
Air Quality Not available.
Flu Activity Not available.
METAR PAED 291058Z AUTO VRB01KT 10SM OVC120 M04/M06 A3033 RMK AO2 SLP269 T10401056

More Conditions Fewer Conditions

Pressure 30.33 in
Visibility 10.0 miles
Clouds Overcast 12000 ft
Windchill 19 °F
Dew Point 21 °F
Humidity 87%
Rainfall -999.00 in
Snow Depth Not available.
UV 0 out of 12
Pollen Not available.
Air Quality Not available.
Flu Activity Not available.
METAR PAED 291058Z AUTO VRB01KT 10SM OVC120 M04/M06 A3033 RMK AO2 SLP269 T10401056

More Conditions Fewer Conditions

10-Day Weather Forecast

Almanac

Astronomy

Dec. 29, 2014 Rise Set
Actual Time
Civil Twilight
Nautical Twilight
Astronomical Twilight
Moon
Length of Visible Light
Length of Day
Tomorrow will be .
, % of the Moon is Illuminated

Today's Extremes

State Highs State Lows

Community

WunderPhotos

Upload Photos

1,781,574 photos uploaded!

WunderBlogs® & News

Nearby

Air Quality

  Air Quality AQ Index Pollutant
Not available.

Snow Depth

Station Depth Elevation

Earthquake Activity

City Distance Mag. Time & Date
Minimum magnitude displayed is 2.5.

Coastal Water Temperatures

Place Temperature

Nearby Weather Stations